sensor_id;sensor_type;location;lat;lon;timestamp;temperature;humidity
47576;DHT22;33304;52.456;13.328;2024-03-22T00:02:11;8.00;99.90
47576;DHT22;33304;52.456;13.328;2024-03-22T00:04:38;8.00;99.90
47576;DHT22;33304;52.456;13.328;2024-03-22T00:07:04;7.90;99.90
47576;DHT22;33304;52.456;13.328;2024-03-22T00:09:31;8.00;99.90
47576;DHT22;33304;52.456;13.328;2024-03-22T00:11:58;7.90;99.90
47576;DHT22;33304;52.456;13.328;2024-03-22T00:14:25;8.00;99.90
47576;DHT22;33304;52.456;13.328;2024-03-22T00:16:51;8.10;99.90
47576;DHT22;33304;52.456;13.328;2024-03-22T00:19:20;8.00;99.90
47576;DHT22;33304;52.456;13.328;2024-03-22T00:21:46;8.10;99.90
47576;DHT22;33304;52.456;13.328;2024-03-22T00:24:13;8.00;99.90
47576;DHT22;33304;52.456;13.328;2024-03-22T00:26:39;8.10;99.90
47576;DHT22;33304;52.456;13.328;2024-03-22T00:29:15;8.10;99.90
47576;DHT22;33304;52.456;13.328;2024-03-22T00:31:41;8.00;99.90
47576;DHT22;33304;52.456;13.328;2024-03-22T00:34:08;7.90;99.90
47576;DHT22;33304;52.456;13.328;2024-03-22T00:36:35;7.90;99.90
47576;DHT22;33304;52.456;13.328;2024-03-22T00:39:02;7.80;99.90
47576;DHT22;33304;52.456;13.328;2024-03-22T00:41:29;7.90;99.90
47576;DHT22;33304;52.456;13.328;2024-03-22T00:43:56;7.90;99.90
47576;DHT22;33304;52.456;13.328;2024-03-22T00:46:22;7.90;99.90
47576;DHT22;33304;52.456;13.328;2024-03-22T00:48:49;7.80;99.90
47576;DHT22;33304;52.456;13.328;2024-03-22T00:51:15;7.80;99.90
47576;DHT22;33304;52.456;13.328;2024-03-22T00:53:44;7.70;99.90
47576;DHT22;33304;52.456;13.328;2024-03-22T00:56:10;7.90;99.90
47576;DHT22;33304;52.456;13.328;2024-03-22T00:58:37;7.90;99.90
47576;DHT22;33304;52.456;13.328;2024-03-22T01:01:04;7.90;99.90
47576;DHT22;33304;52.456;13.328;2024-03-22T01:03:31;7.80;99.90
47576;DHT22;33304;52.456;13.328;2024-03-22T01:05:57;7.70;99.90
47576;DHT22;33304;52.456;13.328;2024-03-22T01:08:24;7.70;99.90
47576;DHT22;33304;52.456;13.328;2024-03-22T01:10:52;7.90;99.90
47576;DHT22;33304;52.456;13.328;2024-03-22T01:13:19;7.90;99.90
47576;DHT22;33304;52.456;13.328;2024-03-22T01:15:45;7.70;99.90
47576;DHT22;33304;52.456;13.328;2024-03-22T01:18:13;7.80;99.90
47576;DHT22;33304;52.456;13.328;2024-03-22T01:20:39;7.80;99.90
47576;DHT22;33304;52.456;13.328;2024-03-22T01:23:08;7.70;99.90
47576;DHT22;33304;52.456;13.328;2024-03-22T01:25:34;7.80;99.90
47576;DHT22;33304;52.456;13.328;2024-03-22T01:28:03;7.70;99.90
47576;DHT22;33304;52.456;13.328;2024-03-22T01:30:30;7.70;99.90
47576;DHT22;33304;52.456;13.328;2024-03-22T01:32:59;7.70;99.90
47576;DHT22;33304;52.456;13.328;2024-03-22T01:35:25;7.80;99.90
47576;DHT22;33304;52.456;13.328;2024-03-22T01:37:52;7.80;99.90
47576;DHT22;33304;52.456;13.328;2024-03-22T01:40:18;7.70;99.90
47576;DHT22;33304;52.456;13.328;2024-03-22T01:42:46;7.50;99.90
47576;DHT22;33304;52.456;13.328;2024-03-22T01:45:14;7.50;99.90
47576;DHT22;33304;52.456;13.328;2024-03-22T01:47:42;7.50;99.90
47576;DHT22;33304;52.456;13.328;2024-03-22T01:50:09;7.40;99.90
47576;DHT22;33304;52.456;13.328;2024-03-22T01:52:39;7.50;99.90
47576;DHT22;33304;52.456;13.328;2024-03-22T01:55:07;7.50;99.90
47576;DHT22;33304;52.456;13.328;2024-03-22T01:57:34;7.60;99.90
47576;DHT22;33304;52.456;13.328;2024-03-22T02:00:02;7.60;99.90
47576;DHT22;33304;52.456;13.328;2024-03-22T02:02:41;7.60;99.90
47576;DHT22;33304;52.456;13.328;2024-03-22T02:05:14;7.60;99.90
47576;DHT22;33304;52.456;13.328;2024-03-22T02:07:42;7.60;99.90
47576;DHT22;33304;52.456;13.328;2024-03-22T02:10:09;7.60;99.90
47576;DHT22;33304;52.456;13.328;2024-03-22T02:12:38;7.50;99.90
47576;DHT22;33304;52.456;13.328;2024-03-22T02:15:04;7.60;99.90
47576;DHT22;33304;52.456;13.328;2024-03-22T02:17:33;7.70;99.90
47576;DHT22;33304;52.456;13.328;2024-03-22T02:20:00;7.70;99.90
47576;DHT22;33304;52.456;13.328;2024-03-22T02:22:28;7.70;99.90
47576;DHT22;33304;52.456;13.328;2024-03-22T02:24:55;7.80;99.90
47576;DHT22;33304;52.456;13.328;2024-03-22T02:27:22;7.80;99.90
47576;DHT22;33304;52.456;13.328;2024-03-22T02:29:48;7.60;99.90
47576;DHT22;33304;52.456;13.328;2024-03-22T02:32:15;7.50;99.90
47576;DHT22;33304;52.456;13.328;2024-03-22T02:34:42;7.70;99.90
47576;DHT22;33304;52.456;13.328;2024-03-22T02:37:09;7.70;99.90
47576;DHT22;33304;52.456;13.328;2024-03-22T02:39:35;7.60;99.90
47576;DHT22;33304;52.456;13.328;2024-03-22T02:42:03;7.60;99.90
47576;DHT22;33304;52.456;13.328;2024-03-22T02:44:29;7.70;99.90
47576;DHT22;33304;52.456;13.328;2024-03-22T02:46:57;7.80;99.90
47576;DHT22;33304;52.456;13.328;2024-03-22T02:49:23;7.50;99.90
47576;DHT22;33304;52.456;13.328;2024-03-22T02:51:51;7.50;99.90
47576;DHT22;33304;52.456;13.328;2024-03-22T02:54:17;7.60;99.90
47576;DHT22;33304;52.456;13.328;2024-03-22T02:56:45;7.60;99.90
47576;DHT22;33304;52.456;13.328;2024-03-22T02:59:12;7.70;99.90
47576;DHT22;33304;52.456;13.328;2024-03-22T03:01:39;7.80;99.90
47576;DHT22;33304;52.456;13.328;2024-03-22T03:04:05;7.70;99.90
47576;DHT22;33304;52.456;13.328;2024-03-22T03:06:32;7.60;99.90
47576;DHT22;33304;52.456;13.328;2024-03-22T03:08:58;7.50;99.90
47576;DHT22;33304;52.456;13.328;2024-03-22T03:11:25;7.50;99.90
47576;DHT22;33304;52.456;13.328;2024-03-22T03:13:51;7.60;99.90
47576;DHT22;33304;52.456;13.328;2024-03-22T03:16:20;7.50;99.90
47576;DHT22;33304;52.456;13.328;2024-03-22T03:18:46;7.60;99.90
47576;DHT22;33304;52.456;13.328;2024-03-22T03:21:13;7.50;99.90
47576;DHT22;33304;52.456;13.328;2024-03-22T03:23:39;7.70;99.90
47576;DHT22;33304;52.456;13.328;2024-03-22T03:26:06;7.60;99.90
47576;DHT22;33304;52.456;13.328;2024-03-22T03:28:32;7.50;99.90
47576;DHT22;33304;52.456;13.328;2024-03-22T03:30:59;7.50;99.90
47576;DHT22;33304;52.456;13.328;2024-03-22T03:33:27;7.60;99.90
47576;DHT22;33304;52.456;13.328;2024-03-22T03:35:54;7.70;99.90
47576;DHT22;33304;52.456;13.328;2024-03-22T03:38:20;7.70;99.90
47576;DHT22;33304;52.456;13.328;2024-03-22T03:40:47;7.80;99.90
47576;DHT22;33304;52.456;13.328;2024-03-22T03:43:13;7.70;99.90
47576;DHT22;33304;52.456;13.328;2024-03-22T03:45:40;7.80;99.90
47576;DHT22;33304;52.456;13.328;2024-03-22T03:48:07;7.80;99.90
47576;DHT22;33304;52.456;13.328;2024-03-22T03:50:35;7.80;99.90
47576;DHT22;33304;52.456;13.328;2024-03-22T03:53:01;7.70;99.90
47576;DHT22;33304;52.456;13.328;2024-03-22T03:55:28;7.60;99.90
47576;DHT22;33304;52.456;13.328;2024-03-22T03:57:54;7.60;99.90
47576;DHT22;33304;52.456;13.328;2024-03-22T04:00:21;7.60;99.90
47576;DHT22;33304;52.456;13.328;2024-03-22T04:02:49;7.70;99.90
47576;DHT22;33304;52.456;13.328;2024-03-22T04:05:16;7.70;99.90
47576;DHT22;33304;52.456;13.328;2024-03-22T04:07:47;7.70;99.90
47576;DHT22;33304;52.456;13.328;2024-03-22T04:10:14;7.70;99.90
47576;DHT22;33304;52.456;13.328;2024-03-22T04:12:40;7.80;99.90
47576;DHT22;33304;52.456;13.328;2024-03-22T04:15:08;7.70;99.90
47576;DHT22;33304;52.456;13.328;2024-03-22T04:17:34;7.60;99.90
47576;DHT22;33304;52.456;13.328;2024-03-22T04:20:01;7.60;99.90
47576;DHT22;33304;52.456;13.328;2024-03-22T04:22:28;7.70;99.90
47576;DHT22;33304;52.456;13.328;2024-03-22T04:24:56;7.70;99.90
47576;DHT22;33304;52.456;13.328;2024-03-22T04:27:22;7.90;99.90
47576;DHT22;33304;52.456;13.328;2024-03-22T04:29:49;7.80;99.90
47576;DHT22;33304;52.456;13.328;2024-03-22T04:32:16;7.90;99.90
47576;DHT22;33304;52.456;13.328;2024-03-22T04:34:43;7.90;99.90
47576;DHT22;33304;52.456;13.328;2024-03-22T04:37:09;7.90;99.90
47576;DHT22;33304;52.456;13.328;2024-03-22T04:39:37;7.80;99.90
47576;DHT22;33304;52.456;13.328;2024-03-22T04:42:06;7.90;99.90
47576;DHT22;33304;52.456;13.328;2024-03-22T04:44:33;7.90;99.90
47576;DHT22;33304;52.456;13.328;2024-03-22T04:47:00;8.10;99.90
47576;DHT22;33304;52.456;13.328;2024-03-22T04:49:26;7.90;99.90
47576;DHT22;33304;52.456;13.328;2024-03-22T04:51:53;7.90;99.90
47576;DHT22;33304;52.456;13.328;2024-03-22T04:54:19;7.90;99.90
47576;DHT22;33304;52.456;13.328;2024-03-22T04:56:46;7.90;99.90
47576;DHT22;33304;52.456;13.328;2024-03-22T04:59:14;7.90;99.90
47576;DHT22;33304;52.456;13.328;2024-03-22T05:01:42;7.90;99.90
47576;DHT22;33304;52.456;13.328;2024-03-22T05:04:08;7.90;99.90
47576;DHT22;33304;52.456;13.328;2024-03-22T05:06:35;8.00;99.90
47576;DHT22;33304;52.456;13.328;2024-03-22T05:09:01;7.90;99.90
47576;DHT22;33304;52.456;13.328;2024-03-22T05:11:29;7.90;99.90
47576;DHT22;33304;52.456;13.328;2024-03-22T05:13:57;7.80;99.90
47576;DHT22;33304;52.456;13.328;2024-03-22T05:16:25;7.90;99.90
47576;DHT22;33304;52.456;13.328;2024-03-22T05:18:51;8.00;99.90
47576;DHT22;33304;52.456;13.328;2024-03-22T05:21:18;8.10;99.90
47576;DHT22;33304;52.456;13.328;2024-03-22T05:23:44;8.10;99.10
47576;DHT22;33304;52.456;13.328;2024-03-22T05:26:11;8.10;99.10
47576;DHT22;33304;52.456;13.328;2024-03-22T05:28:38;8.20;94.80
47576;DHT22;33304;52.456;13.328;2024-03-22T05:31:05;8.20;94.30
47576;DHT22;33304;52.456;13.328;2024-03-22T05:33:33;8.20;93.90
47576;DHT22;33304;52.456;13.328;2024-03-22T05:36:00;8.20;92.60
47576;DHT22;33304;52.456;13.328;2024-03-22T05:38:26;8.10;92.50
47576;DHT22;33304;52.456;13.328;2024-03-22T05:40:53;8.00;93.40
47576;DHT22;33304;52.456;13.328;2024-03-22T05:43:19;8.00;94.20
47576;DHT22;33304;52.456;13.328;2024-03-22T05:45:46;8.00;94.20
47576;DHT22;33304;52.456;13.328;2024-03-22T05:48:12;8.10;93.20
47576;DHT22;33304;52.456;13.328;2024-03-22T05:50:40;8.10;92.90
47576;DHT22;33304;52.456;13.328;2024-03-22T05:53:07;8.20;92.60
47576;DHT22;33304;52.456;13.328;2024-03-22T05:55:34;8.10;92.50
47576;DHT22;33304;52.456;13.328;2024-03-22T05:58:00;8.10;93.60
47576;DHT22;33304;52.456;13.328;2024-03-22T06:00:27;8.40;92.70
47576;DHT22;33304;52.456;13.328;2024-03-22T06:02:53;8.30;91.90
47576;DHT22;33304;52.456;13.328;2024-03-22T06:05:20;8.30;91.40
47576;DHT22;33304;52.456;13.328;2024-03-22T06:07:48;8.40;90.60
47576;DHT22;33304;52.456;13.328;2024-03-22T06:10:15;8.50;87.50
47576;DHT22;33304;52.456;13.328;2024-03-22T06:12:42;8.40;88.10
47576;DHT22;33304;52.456;13.328;2024-03-22T06:15:10;8.20;90.20
47576;DHT22;33304;52.456;13.328;2024-03-22T06:17:36;8.10;91.50
47576;DHT22;33304;52.456;13.328;2024-03-22T06:20:04;8.30;92.20
47576;DHT22;33304;52.456;13.328;2024-03-22T06:22:31;8.30;90.40
47576;DHT22;33304;52.456;13.328;2024-03-22T06:24:59;8.40;89.70
47576;DHT22;33304;52.456;13.328;2024-03-22T06:27:25;8.50;85.00
47576;DHT22;33304;52.456;13.328;2024-03-22T06:29:53;8.30;85.90
47576;DHT22;33304;52.456;13.328;2024-03-22T06:32:19;8.60;83.50
47576;DHT22;33304;52.456;13.328;2024-03-22T06:34:46;8.50;82.90
47576;DHT22;33304;52.456;13.328;2024-03-22T06:37:12;8.50;83.90
47576;DHT22;33304;52.456;13.328;2024-03-22T06:39:39;8.50;81.40
47576;DHT22;33304;52.456;13.328;2024-03-22T06:42:07;8.40;83.70
47576;DHT22;33304;52.456;13.328;2024-03-22T06:44:34;8.40;84.20
47576;DHT22;33304;52.456;13.328;2024-03-22T06:47:00;8.60;83.60
47576;DHT22;33304;52.456;13.328;2024-03-22T06:49:28;8.60;81.10
47576;DHT22;33304;52.456;13.328;2024-03-22T06:51:54;8.60;82.00
47576;DHT22;33304;52.456;13.328;2024-03-22T06:54:21;8.60;79.10
47576;DHT22;33304;52.456;13.328;2024-03-22T06:56:47;8.70;77.40
47576;DHT22;33304;52.456;13.328;2024-03-22T06:59:16;8.80;77.40
47576;DHT22;33304;52.456;13.328;2024-03-22T07:01:42;8.70;75.10
47576;DHT22;33304;52.456;13.328;2024-03-22T07:04:09;8.70;77.40
47576;DHT22;33304;52.456;13.328;2024-03-22T07:06:35;8.80;71.00
47576;DHT22;33304;52.456;13.328;2024-03-22T07:09:02;8.70;75.90
47576;DHT22;33304;52.456;13.328;2024-03-22T07:11:28;8.70;75.10
47576;DHT22;33304;52.456;13.328;2024-03-22T07:13:56;8.90;73.10
47576;DHT22;33304;52.456;13.328;2024-03-22T07:16:23;8.90;67.70
47576;DHT22;33304;52.456;13.328;2024-03-22T07:18:50;9.00;68.80
47576;DHT22;33304;52.456;13.328;2024-03-22T07:21:16;9.10;65.50
47576;DHT22;33304;52.456;13.328;2024-03-22T07:23:43;9.10;65.50
47576;DHT22;33304;52.456;13.328;2024-03-22T07:26:09;9.10;68.10
47576;DHT22;33304;52.456;13.328;2024-03-22T07:28:37;9.10;66.00
47576;DHT22;33304;52.456;13.328;2024-03-22T07:31:03;9.30;63.90
47576;DHT22;33304;52.456;13.328;2024-03-22T07:33:33;9.30;60.80
47576;DHT22;33304;52.456;13.328;2024-03-22T07:36:20;9.10;62.60
47576;DHT22;33304;52.456;13.328;2024-03-22T07:38:47;9.20;64.90
47576;DHT22;33304;52.456;13.328;2024-03-22T07:41:39;9.10;63.40
47576;DHT22;33304;52.456;13.328;2024-03-22T07:44:06;9.20;65.00
47576;DHT22;33304;52.456;13.328;2024-03-22T07:46:32;9.10;65.50
47576;DHT22;33304;52.456;13.328;2024-03-22T07:49:00;9.10;65.50
47576;DHT22;33304;52.456;13.328;2024-03-22T07:51:27;9.20;67.20
47576;DHT22;33304;52.456;13.328;2024-03-22T07:53:54;9.10;66.20
47576;DHT22;33304;52.456;13.328;2024-03-22T07:56:20;9.20;66.20
47576;DHT22;33304;52.456;13.328;2024-03-22T07:58:48;9.30;66.70
47576;DHT22;33304;52.456;13.328;2024-03-22T08:01:14;9.40;66.00
47576;DHT22;33304;52.456;13.328;2024-03-22T08:03:42;9.60;68.40
47576;DHT22;33304;52.456;13.328;2024-03-22T08:06:10;9.70;61.90
47576;DHT22;33304;52.456;13.328;2024-03-22T08:08:37;9.80;58.90
47576;DHT22;33304;52.456;13.328;2024-03-22T08:11:03;9.80;55.20
47576;DHT22;33304;52.456;13.328;2024-03-22T08:13:30;9.80;55.40
47576;DHT22;33304;52.456;13.328;2024-03-22T08:15:56;9.70;55.70
47576;DHT22;33304;52.456;13.328;2024-03-22T08:18:23;9.90;55.30
47576;DHT22;33304;52.456;13.328;2024-03-22T08:20:50;10.00;52.70
47576;DHT22;33304;52.456;13.328;2024-03-22T08:23:18;9.80;55.20
47576;DHT22;33304;52.456;13.328;2024-03-22T08:25:46;9.90;52.90
47576;DHT22;33304;52.456;13.328;2024-03-22T08:28:13;9.80;55.20
47576;DHT22;33304;52.456;13.328;2024-03-22T08:30:40;9.80;55.10
47576;DHT22;33304;52.456;13.328;2024-03-22T08:33:08;9.80;55.20
47576;DHT22;33304;52.456;13.328;2024-03-22T08:35:34;10.00;53.20
47576;DHT22;33304;52.456;13.328;2024-03-22T08:38:01;10.00;53.00
47576;DHT22;33304;52.456;13.328;2024-03-22T08:40:29;10.00;51.20
47576;DHT22;33304;52.456;13.328;2024-03-22T08:42:56;10.00;52.40
47576;DHT22;33304;52.456;13.328;2024-03-22T08:45:22;10.10;52.00
47576;DHT22;33304;52.456;13.328;2024-03-22T08:47:49;10.10;50.80
47576;DHT22;33304;52.456;13.328;2024-03-22T08:50:16;10.20;50.60
47576;DHT22;33304;52.456;13.328;2024-03-22T08:52:43;10.20;49.20
47576;DHT22;33304;52.456;13.328;2024-03-22T08:55:09;10.10;48.90
47576;DHT22;33304;52.456;13.328;2024-03-22T08:57:38;10.00;51.50
47576;DHT22;33304;52.456;13.328;2024-03-22T09:00:05;10.30;50.50
47576;DHT22;33304;52.456;13.328;2024-03-22T09:02:34;10.30;48.60
47576;DHT22;33304;52.456;13.328;2024-03-22T09:05:00;10.30;47.20
47576;DHT22;33304;52.456;13.328;2024-03-22T09:07:27;10.30;48.70
47576;DHT22;33304;52.456;13.328;2024-03-22T09:09:53;10.40;46.70
47576;DHT22;33304;52.456;13.328;2024-03-22T09:12:20;10.60;43.80
47576;DHT22;33304;52.456;13.328;2024-03-22T09:14:48;10.50;45.60
47576;DHT22;33304;52.456;13.328;2024-03-22T09:17:15;10.70;43.80
47576;DHT22;33304;52.456;13.328;2024-03-22T09:19:41;10.80;42.10
47576;DHT22;33304;52.456;13.328;2024-03-22T09:22:08;10.80;40.20
47576;DHT22;33304;52.456;13.328;2024-03-22T09:24:35;10.80;40.90
47576;DHT22;33304;52.456;13.328;2024-03-22T09:27:02;10.70;41.60
47576;DHT22;33304;52.456;13.328;2024-03-22T09:29:34;10.80;40.60
47576;DHT22;33304;52.456;13.328;2024-03-22T09:32:03;11.00;38.80
47576;DHT22;33304;52.456;13.328;2024-03-22T09:34:29;11.00;38.00
47576;DHT22;33304;52.456;13.328;2024-03-22T09:36:57;11.10;37.20
47576;DHT22;33304;52.456;13.328;2024-03-22T09:39:24;11.20;34.80
47576;DHT22;33304;52.456;13.328;2024-03-22T09:41:57;11.20;37.10
47576;DHT22;33304;52.456;13.328;2024-03-22T09:44:27;11.30;34.70
47576;DHT22;33304;52.456;13.328;2024-03-22T09:46:55;11.20;36.40
47576;DHT22;33304;52.456;13.328;2024-03-22T09:49:24;11.30;34.80
47576;DHT22;33304;52.456;13.328;2024-03-22T09:51:51;11.30;35.60
47576;DHT22;33304;52.456;13.328;2024-03-22T09:54:19;11.40;34.00
47576;DHT22;33304;52.456;13.328;2024-03-22T09:56:47;11.30;34.40
47576;DHT22;33304;52.456;13.328;2024-03-22T09:59:15;11.20;35.80
47576;DHT22;33304;52.456;13.328;2024-03-22T10:01:41;11.40;34.30
47576;DHT22;33304;52.456;13.328;2024-03-22T10:04:09;11.60;33.10
47576;DHT22;33304;52.456;13.328;2024-03-22T10:06:37;11.40;32.80
47576;DHT22;33304;52.456;13.328;2024-03-22T10:09:05;11.40;32.90
47576;DHT22;33304;52.456;13.328;2024-03-22T10:11:31;11.60;33.00
47576;DHT22;33304;52.456;13.328;2024-03-22T10:14:00;11.70;31.00
47576;DHT22;33304;52.456;13.328;2024-03-22T10:16:26;11.70;30.60
47576;DHT22;33304;52.456;13.328;2024-03-22T10:18:55;11.80;29.50
47576;DHT22;33304;52.456;13.328;2024-03-22T10:21:21;11.90;29.20
47576;DHT22;33304;52.456;13.328;2024-03-22T10:23:49;11.70;29.80
47576;DHT22;33304;52.456;13.328;2024-03-22T10:26:16;11.90;29.30
47576;DHT22;33304;52.456;13.328;2024-03-22T10:28:47;11.80;29.70
47576;DHT22;33304;52.456;13.328;2024-03-22T10:31:13;12.00;29.30
47576;DHT22;33304;52.456;13.328;2024-03-22T10:33:41;12.10;28.00
47576;DHT22;33304;52.456;13.328;2024-03-22T10:36:10;12.10;28.40
47576;DHT22;33304;52.456;13.328;2024-03-22T10:38:39;11.90;28.60
47576;DHT22;33304;52.456;13.328;2024-03-22T10:41:07;12.00;29.00
47576;DHT22;33304;52.456;13.328;2024-03-22T10:43:35;12.10;28.10
47576;DHT22;33304;52.456;13.328;2024-03-22T10:46:02;12.40;26.00
47576;DHT22;33304;52.456;13.328;2024-03-22T10:48:30;12.70;26.00
47576;DHT22;33304;52.456;13.328;2024-03-22T10:51:00;12.70;25.30
47576;DHT22;33304;52.456;13.328;2024-03-22T10:53:31;13.00;24.10
47576;DHT22;33304;52.456;13.328;2024-03-22T10:55:58;13.20;22.60
47576;DHT22;33304;52.456;13.328;2024-03-22T10:58:28;13.00;23.90
47576;DHT22;33304;52.456;13.328;2024-03-22T11:00:56;13.10;24.10
47576;DHT22;33304;52.456;13.328;2024-03-22T11:03:25;13.20;22.10
47576;DHT22;33304;52.456;13.328;2024-03-22T11:05:54;13.40;20.20
47576;DHT22;33304;52.456;13.328;2024-03-22T11:08:25;13.40;19.80
47576;DHT22;33304;52.456;13.328;2024-03-22T11:10:52;13.30;19.50
47576;DHT22;33304;52.456;13.328;2024-03-22T11:13:21;13.40;20.00
47576;DHT22;33304;52.456;13.328;2024-03-22T11:15:49;13.40;19.60
47576;DHT22;33304;52.456;13.328;2024-03-22T11:18:17;13.30;19.30
47576;DHT22;33304;52.456;13.328;2024-03-22T11:20:43;13.20;19.60
47576;DHT22;33304;52.456;13.328;2024-03-22T11:23:12;13.30;19.60
47576;DHT22;33304;52.456;13.328;2024-03-22T11:25:38;13.00;21.30
47576;DHT22;33304;52.456;13.328;2024-03-22T11:28:06;13.30;19.60
47576;DHT22;33304;52.456;13.328;2024-03-22T11:30:33;13.30;19.40
47576;DHT22;33304;52.456;13.328;2024-03-22T11:33:02;13.20;20.60
47576;DHT22;33304;52.456;13.328;2024-03-22T11:35:29;13.10;20.10
47576;DHT22;33304;52.456;13.328;2024-03-22T11:37:56;13.20;19.70
47576;DHT22;33304;52.456;13.328;2024-03-22T11:40:25;13.10;21.30
47576;DHT22;33304;52.456;13.328;2024-03-22T11:42:54;13.00;21.10
47576;DHT22;33304;52.456;13.328;2024-03-22T11:45:22;13.20;20.70
47576;DHT22;33304;52.456;13.328;2024-03-22T11:47:49;13.20;20.80
47576;DHT22;33304;52.456;13.328;2024-03-22T11:50:18;13.30;20.90
47576;DHT22;33304;52.456;13.328;2024-03-22T11:52:45;13.20;20.80
47576;DHT22;33304;52.456;13.328;2024-03-22T11:55:13;13.20;21.00
47576;DHT22;33304;52.456;13.328;2024-03-22T11:57:41;13.20;21.20
47576;DHT22;33304;52.456;13.328;2024-03-22T12:00:08;13.10;22.40
47576;DHT22;33304;52.456;13.328;2024-03-22T12:02:38;13.20;23.20
47576;DHT22;33304;52.456;13.328;2024-03-22T12:05:05;13.10;25.70
47576;DHT22;33304;52.456;13.328;2024-03-22T12:07:34;12.90;33.10
47576;DHT22;33304;52.456;13.328;2024-03-22T12:10:00;12.50;41.80
47576;DHT22;33304;52.456;13.328;2024-03-22T12:12:27;12.20;42.20
47576;DHT22;33304;52.456;13.328;2024-03-22T12:14:54;12.00;49.20
47576;DHT22;33304;52.456;13.328;2024-03-22T12:17:21;11.80;59.20
47576;DHT22;33304;52.456;13.328;2024-03-22T12:19:47;11.70;74.70
47576;DHT22;33304;52.456;13.328;2024-03-22T12:22:14;11.60;83.80
47576;DHT22;33304;52.456;13.328;2024-03-22T12:24:41;11.60;86.70
47576;DHT22;33304;52.456;13.328;2024-03-22T12:27:09;11.60;92.40
47576;DHT22;33304;52.456;13.328;2024-03-22T12:29:35;11.50;96.80
47576;DHT22;33304;52.456;13.328;2024-03-22T12:32:02;11.50;99.90
47576;DHT22;33304;52.456;13.328;2024-03-22T12:34:29;11.40;99.90
47576;DHT22;33304;52.456;13.328;2024-03-22T12:36:58;11.30;99.90
47576;DHT22;33304;52.456;13.328;2024-03-22T12:39:24;11.30;99.90
47576;DHT22;33304;52.456;13.328;2024-03-22T12:41:53;11.30;99.90
47576;DHT22;33304;52.456;13.328;2024-03-22T12:44:20;11.30;99.90
47576;DHT22;33304;52.456;13.328;2024-03-22T12:46:47;11.40;99.90
47576;DHT22;33304;52.456;13.328;2024-03-22T12:49:14;11.30;99.90
47576;DHT22;33304;52.456;13.328;2024-03-22T12:51:41;11.20;99.90
47576;DHT22;33304;52.456;13.328;2024-03-22T12:54:09;11.40;99.90
47576;DHT22;33304;52.456;13.328;2024-03-22T12:56:36;11.40;99.90
47576;DHT22;33304;52.456;13.328;2024-03-22T12:59:04;11.30;99.90
47576;DHT22;33304;52.456;13.328;2024-03-22T13:01:31;11.30;99.90
47576;DHT22;33304;52.456;13.328;2024-03-22T13:03:57;11.30;99.90
47576;DHT22;33304;52.456;13.328;2024-03-22T13:06:24;11.00;99.90
47576;DHT22;33304;52.456;13.328;2024-03-22T13:08:50;11.00;99.90
47576;DHT22;33304;52.456;13.328;2024-03-22T13:11:18;10.90;99.90
47576;DHT22;33304;52.456;13.328;2024-03-22T13:13:44;10.80;99.90
47576;DHT22;33304;52.456;13.328;2024-03-22T13:16:12;10.70;99.90
47576;DHT22;33304;52.456;13.328;2024-03-22T13:18:41;10.70;99.90
47576;DHT22;33304;52.456;13.328;2024-03-22T13:21:09;10.70;99.90
47576;DHT22;33304;52.456;13.328;2024-03-22T13:23:36;10.80;99.90
47576;DHT22;33304;52.456;13.328;2024-03-22T13:26:03;10.90;99.90
47576;DHT22;33304;52.456;13.328;2024-03-22T13:28:30;10.80;99.90
47576;DHT22;33304;52.456;13.328;2024-03-22T13:31:01;10.80;99.90
47576;DHT22;33304;52.456;13.328;2024-03-22T13:33:30;10.70;99.90
47576;DHT22;33304;52.456;13.328;2024-03-22T13:35:57;10.70;99.90
47576;DHT22;33304;52.456;13.328;2024-03-22T13:38:23;10.80;99.90
47576;DHT22;33304;52.456;13.328;2024-03-22T13:40:53;10.90;99.90
47576;DHT22;33304;52.456;13.328;2024-03-22T13:43:20;10.80;99.90
47576;DHT22;33304;52.456;13.328;2024-03-22T13:45:51;10.90;99.90
47576;DHT22;33304;52.456;13.328;2024-03-22T13:48:20;11.00;99.90
47576;DHT22;33304;52.456;13.328;2024-03-22T13:50:52;11.10;99.90
47576;DHT22;33304;52.456;13.328;2024-03-22T13:53:19;11.30;99.90
47576;DHT22;33304;52.456;13.328;2024-03-22T13:55:48;11.20;99.90
47576;DHT22;33304;52.456;13.328;2024-03-22T13:58:14;11.10;99.90
47576;DHT22;33304;52.456;13.328;2024-03-22T14:00:41;11.10;99.90
47576;DHT22;33304;52.456;13.328;2024-03-22T14:03:07;11.20;99.90
47576;DHT22;33304;52.456;13.328;2024-03-22T14:05:34;11.30;99.90
47576;DHT22;33304;52.456;13.328;2024-03-22T14:08:02;11.20;99.90
47576;DHT22;33304;52.456;13.328;2024-03-22T14:10:30;11.20;99.90
47576;DHT22;33304;52.456;13.328;2024-03-22T14:12:57;11.40;99.90
47576;DHT22;33304;52.456;13.328;2024-03-22T14:15:24;11.40;99.90
47576;DHT22;33304;52.456;13.328;2024-03-22T14:17:52;11.30;99.90
47576;DHT22;33304;52.456;13.328;2024-03-22T14:20:19;11.30;99.90
47576;DHT22;33304;52.456;13.328;2024-03-22T14:22:46;11.30;99.90
47576;DHT22;33304;52.456;13.328;2024-03-22T14:25:15;11.20;99.90
47576;DHT22;33304;52.456;13.328;2024-03-22T14:27:41;11.20;99.90
47576;DHT22;33304;52.456;13.328;2024-03-22T14:30:12;11.50;99.90
47576;DHT22;33304;52.456;13.328;2024-03-22T14:32:39;11.50;99.90
47576;DHT22;33304;52.456;13.328;2024-03-22T14:35:07;11.50;99.90
47576;DHT22;33304;52.456;13.328;2024-03-22T14:37:34;11.50;99.90
47576;DHT22;33304;52.456;13.328;2024-03-22T14:40:01;11.60;99.90
47576;DHT22;33304;52.456;13.328;2024-03-22T14:42:32;11.50;99.90
47576;DHT22;33304;52.456;13.328;2024-03-22T14:44:59;11.60;99.90
47576;DHT22;33304;52.456;13.328;2024-03-22T14:47:25;11.60;99.90
47576;DHT22;33304;52.456;13.328;2024-03-22T14:49:52;11.60;99.90
47576;DHT22;33304;52.456;13.328;2024-03-22T14:52:18;11.60;99.90
47576;DHT22;33304;52.456;13.328;2024-03-22T14:54:47;11.70;99.90
47576;DHT22;33304;52.456;13.328;2024-03-22T14:57:13;11.50;99.90
47576;DHT22;33304;52.456;13.328;2024-03-22T14:59:42;11.40;99.90
47576;DHT22;33304;52.456;13.328;2024-03-22T15:02:08;11.60;99.90
47576;DHT22;33304;52.456;13.328;2024-03-22T15:04:35;11.50;99.90
47576;DHT22;33304;52.456;13.328;2024-03-22T15:07:01;11.40;99.90
47576;DHT22;33304;52.456;13.328;2024-03-22T15:09:28;11.40;99.90
47576;DHT22;33304;52.456;13.328;2024-03-22T15:11:54;11.40;99.90
47576;DHT22;33304;52.456;13.328;2024-03-22T15:14:24;11.30;99.90
47576;DHT22;33304;52.456;13.328;2024-03-22T15:16:52;11.30;99.90
47576;DHT22;33304;52.456;13.328;2024-03-22T15:19:19;11.30;99.90
47576;DHT22;33304;52.456;13.328;2024-03-22T15:21:45;11.20;99.90
47576;DHT22;33304;52.456;13.328;2024-03-22T15:24:12;11.20;99.90
47576;DHT22;33304;52.456;13.328;2024-03-22T15:26:38;11.20;99.90